Aeroporto :
LOGIN :

Iscrizione | Disclaimer

   EN    FR    IT 

 










Sommario :    VFR   VFR Marginale   IFR   IFR Intensivo   IFR Molto Intensivo
Visibilità : 
Base nubi : 
>= 8 km
>= 3000ft
5 / 8 km
1000 / 3000 ft
1500m / 5 km
500 / 1000 ft
800 / 1500m
200 / 500 ft
< 800m
< 200 ft
Simboli :   Temporali  Nebbia  Neve Forte  Precipitazioni Forti  Vento > 20 kt
SIGMETs :   Varie  Temporali  Ghiacco  Turbolenza  Onda orograficha  Ceneri Vulcaniche







- Altitudine del aeroporto : 197 ft
- Codice IATA : XOG
- Carte del aeroporto


LFMO - Orange

ULTIMO METAR :
  • 201530Z AUTO 31002KT 9999 SCT038 SCT045 OVC056 07/05 Q1003 BECMG 13015G25KT

METARs OBSOLETI :
  • 201500Z AUTO 33002KT 9999 SCT033 SCT039 BKN048 07/05 Q1003 BECMG 13015G25KT
  • 201430Z AUTO 27005KT 230V290 9999 BKN032 OVC054 07/05 Q1003 BECMG 13015G25KT
  • 201400Z AUTO VRB02KT 9999 FEW031 BKN037 OVC056 08/05 Q1003 BECMG 13012KT
  • 201330Z AUTO VRB02KT 9999 BKN038 OVC045 07/05 Q1003 BECMG 13012KT
  • 201300Z AUTO VRB03KT 9999 FEW004 OVC050 07/05 Q1003 NOSIG

TAF TAF LFMO
Valido dal 20 a 15 ore il 21 a 15 ore UTC


201400Z 2015/2115 VRB02KT 9999 BKN040
BECMG 2016/2018 13015G25KT
TEMPO 2021/2105 4000 SHRA
TEMPO 2022/2103 13020G35KT 2000 TSRA BKN005 BKN035CB
BECMG 2104/2106 33005KT
TEMPO 2109/2115 BKN005
Nessun NOTAM noto per questo aeroporto.
1 SIGMET conosciuto per la FIR Marseille (LFMM) :
 
Temporali affogati
LFMM SIGMET 1 VALID 201545/201700 LFPW
LFMM MARSEILLE FIR/UIR EMBD TS OBS AT 1545Z WI N4100 E00430 - N4145 E00430 - N4200 E00515 - N4045 E00600 - N4045 E00515 - N4100 E00430 TOP FL320 MOV E 30KT INTSF=



MetMap, La meteo Aeronautica in un colpo d'occhio ! - Copyright ORBIFLY Dicembre 2007 - Disclaimer

ORBIFLY MET'MAP TEAM :

Programmazione e sviluppo : Alexandra Zaïnal
Concezione e sviluppo : Baudouin d'Aumeries
Co-Programmazione e sviluppo : Marc-Olivier Méhu
Supporto tecnico e logistico : Manuel Goepfert
Aiuto per la traduzione : Arnaldo La Scala

Contatto : metmap@orbifly.com




FONTI E CREDITI :

   NOAA